sensor_id;sensor_type;location;lat;lon;timestamp;P1;durP1;ratioP1;P2;durP2;ratioP2
22969;SDS011;11651;52.136;5.572;2022-07-11T00:02:22;5.82;;;1.90;;
22969;SDS011;11651;52.136;5.572;2022-07-11T00:04:47;4.65;;;2.20;;
22969;SDS011;11651;52.136;5.572;2022-07-11T00:07:14;4.45;;;1.90;;
22969;SDS011;11651;52.136;5.572;2022-07-11T00:09:40;5.07;;;1.90;;
22969;SDS011;11651;52.136;5.572;2022-07-11T00:12:06;3.90;;;1.92;;
22969;SDS011;11651;52.136;5.572;2022-07-11T00:14:34;4.25;;;2.00;;
22969;SDS011;11651;52.136;5.572;2022-07-11T00:17:00;8.43;;;2.15;;
22969;SDS011;11651;52.136;5.572;2022-07-11T00:19:26;4.82;;;2.00;;
22969;SDS011;11651;52.136;5.572;2022-07-11T00:21:52;6.00;;;1.90;;
22969;SDS011;11651;52.136;5.572;2022-07-11T00:24:18;6.90;;;2.30;;
22969;SDS011;11651;52.136;5.572;2022-07-11T00:26:45;8.25;;;2.33;;
22969;SDS011;11651;52.136;5.572;2022-07-11T00:29:11;8.77;;;2.30;;
22969;SDS011;11651;52.136;5.572;2022-07-11T00:31:37;5.63;;;2.28;;
22969;SDS011;11651;52.136;5.572;2022-07-11T00:34:03;4.68;;;2.30;;
22969;SDS011;11651;52.136;5.572;2022-07-11T00:36:28;6.03;;;2.35;;
22969;SDS011;11651;52.136;5.572;2022-07-11T00:38:54;4.60;;;2.08;;
22969;SDS011;11651;52.136;5.572;2022-07-11T00:41:20;6.40;;;2.42;;
22969;SDS011;11651;52.136;5.572;2022-07-11T00:43:50;8.50;;;2.22;;
22969;SDS011;11651;52.136;5.572;2022-07-11T00:46:18;3.75;;;2.03;;
22969;SDS011;11651;52.136;5.572;2022-07-11T00:48:44;5.95;;;1.60;;
22969;SDS011;11651;52.136;5.572;2022-07-11T00:51:10;5.90;;;1.85;;
22969;SDS011;11651;52.136;5.572;2022-07-11T00:53:36;5.32;;;1.67;;
22969;SDS011;11651;52.136;5.572;2022-07-11T00:56:03;4.15;;;1.50;;
22969;SDS011;11651;52.136;5.572;2022-07-11T00:58:30;4.38;;;1.40;;
22969;SDS011;11651;52.136;5.572;2022-07-11T01:00:56;5.18;;;1.88;;
22969;SDS011;11651;52.136;5.572;2022-07-11T01:03:22;7.10;;;1.70;;
22969;SDS011;11651;52.136;5.572;2022-07-11T01:05:48;5.68;;;1.42;;
22969;SDS011;11651;52.136;5.572;2022-07-11T01:14:38;7.18;;;1.90;;
22969;SDS011;11651;52.136;5.572;2022-07-11T01:17:09;4.43;;;1.75;;
22969;SDS011;11651;52.136;5.572;2022-07-11T01:19:40;5.85;;;1.75;;
22969;SDS011;11651;52.136;5.572;2022-07-11T01:22:05;4.35;;;1.75;;
22969;SDS011;11651;52.136;5.572;2022-07-11T01:24:31;4.57;;;1.60;;
22969;SDS011;11651;52.136;5.572;2022-07-11T01:26:57;6.72;;;1.48;;
22969;SDS011;11651;52.136;5.572;2022-07-11T01:29:41;3.30;;;1.52;;
22969;SDS011;11651;52.136;5.572;2022-07-11T01:32:17;3.30;;;1.17;;
22969;SDS011;11651;52.136;5.572;2022-07-11T01:34:43;3.25;;;1.35;;
22969;SDS011;11651;52.136;5.572;2022-07-11T01:37:09;7.05;;;1.60;;
22969;SDS011;11651;52.136;5.572;2022-07-11T01:39:34;5.10;;;2.03;;
22969;SDS011;11651;52.136;5.572;2022-07-11T01:42:00;5.22;;;1.55;;
22969;SDS011;11651;52.136;5.572;2022-07-11T01:44:26;5.43;;;1.70;;
22969;SDS011;11651;52.136;5.572;2022-07-11T01:46:52;7.35;;;1.80;;
22969;SDS011;11651;52.136;5.572;2022-07-11T01:49:18;7.00;;;1.60;;
22969;SDS011;11651;52.136;5.572;2022-07-11T01:51:43;5.05;;;1.58;;
22969;SDS011;11651;52.136;5.572;2022-07-11T01:54:09;5.43;;;1.58;;
22969;SDS011;11651;52.136;5.572;2022-07-11T01:56:35;1.88;;;1.13;;
22969;SDS011;11651;52.136;5.572;2022-07-11T01:59:00;2.65;;;1.38;;
22969;SDS011;11651;52.136;5.572;2022-07-11T02:01:26;5.65;;;1.48;;
22969;SDS011;11651;52.136;5.572;2022-07-11T02:03:52;2.28;;;1.20;;
22969;SDS011;11651;52.136;5.572;2022-07-11T02:06:20;2.65;;;1.35;;
22969;SDS011;11651;52.136;5.572;2022-07-11T02:08:45;4.00;;;1.40;;
22969;SDS011;11651;52.136;5.572;2022-07-11T02:11:11;4.18;;;1.30;;
22969;SDS011;11651;52.136;5.572;2022-07-11T02:13:37;3.28;;;1.27;;
22969;SDS011;11651;52.136;5.572;2022-07-11T02:16:02;4.75;;;1.75;;
22969;SDS011;11651;52.136;5.572;2022-07-11T02:18:28;3.90;;;1.23;;
22969;SDS011;11651;52.136;5.572;2022-07-11T02:20:54;4.85;;;1.30;;
22969;SDS011;11651;52.136;5.572;2022-07-11T02:23:20;1.77;;;1.20;;
22969;SDS011;11651;52.136;5.572;2022-07-11T02:25:47;3.53;;;1.40;;
22969;SDS011;11651;52.136;5.572;2022-07-11T02:28:13;4.07;;;1.25;;
22969;SDS011;11651;52.136;5.572;2022-07-11T02:30:40;2.42;;;1.23;;
22969;SDS011;11651;52.136;5.572;2022-07-11T02:33:07;3.17;;;1.42;;
22969;SDS011;11651;52.136;5.572;2022-07-11T02:35:36;2.65;;;1.60;;
22969;SDS011;11651;52.136;5.572;2022-07-11T02:38:02;4.28;;;1.52;;
22969;SDS011;11651;52.136;5.572;2022-07-11T02:40:28;5.72;;;1.77;;
22969;SDS011;11651;52.136;5.572;2022-07-11T02:42:53;3.53;;;1.90;;
22969;SDS011;11651;52.136;5.572;2022-07-11T02:45:20;4.10;;;1.70;;
22969;SDS011;11651;52.136;5.572;2022-07-11T02:47:46;3.08;;;1.63;;
22969;SDS011;11651;52.136;5.572;2022-07-11T02:50:12;3.72;;;1.65;;
22969;SDS011;11651;52.136;5.572;2022-07-11T02:52:39;2.05;;;1.70;;
22969;SDS011;11651;52.136;5.572;2022-07-11T02:55:06;2.38;;;1.40;;
22969;SDS011;11651;52.136;5.572;2022-07-11T02:57:34;2.13;;;1.48;;
22969;SDS011;11651;52.136;5.572;2022-07-11T03:00:00;3.97;;;1.50;;
22969;SDS011;11651;52.136;5.572;2022-07-11T03:02:27;3.30;;;1.73;;
22969;SDS011;11651;52.136;5.572;2022-07-11T03:04:53;3.78;;;1.63;;
22969;SDS011;11651;52.136;5.572;2022-07-11T03:07:19;4.15;;;1.58;;
22969;SDS011;11651;52.136;5.572;2022-07-11T03:09:44;3.53;;;1.80;;
22969;SDS011;11651;52.136;5.572;2022-07-11T03:12:10;6.43;;;1.80;;
22969;SDS011;11651;52.136;5.572;2022-07-11T03:14:35;3.40;;;1.90;;
22969;SDS011;11651;52.136;5.572;2022-07-11T03:17:01;5.18;;;1.80;;
22969;SDS011;11651;52.136;5.572;2022-07-11T03:19:26;4.25;;;2.03;;
22969;SDS011;11651;52.136;5.572;2022-07-11T03:21:52;4.05;;;1.85;;
22969;SDS011;11651;52.136;5.572;2022-07-11T03:24:18;5.15;;;1.77;;
22969;SDS011;11651;52.136;5.572;2022-07-11T03:26:43;4.63;;;1.80;;
22969;SDS011;11651;52.136;5.572;2022-07-11T03:29:09;5.68;;;2.00;;
22969;SDS011;11651;52.136;5.572;2022-07-11T03:31:34;2.70;;;1.85;;
22969;SDS011;11651;52.136;5.572;2022-07-11T03:34:00;4.40;;;2.20;;
22969;SDS011;11651;52.136;5.572;2022-07-11T03:36:26;6.68;;;2.20;;
22969;SDS011;11651;52.136;5.572;2022-07-11T03:38:52;6.68;;;2.50;;
22969;SDS011;11651;52.136;5.572;2022-07-11T03:41:18;4.00;;;2.25;;
22969;SDS011;11651;52.136;5.572;2022-07-11T03:43:43;3.85;;;2.10;;
22969;SDS011;11651;52.136;5.572;2022-07-11T03:46:09;5.03;;;2.50;;
22969;SDS011;11651;52.136;5.572;2022-07-11T03:48:34;3.88;;;2.35;;
22969;SDS011;11651;52.136;5.572;2022-07-11T03:51:00;6.07;;;2.38;;
22969;SDS011;11651;52.136;5.572;2022-07-11T03:53:25;4.45;;;2.53;;
22969;SDS011;11651;52.136;5.572;2022-07-11T03:55:52;6.18;;;2.83;;
22969;SDS011;11651;52.136;5.572;2022-07-11T03:58:17;7.43;;;2.80;;
22969;SDS011;11651;52.136;5.572;2022-07-11T04:00:43;4.70;;;2.80;;
22969;SDS011;11651;52.136;5.572;2022-07-11T04:03:08;3.95;;;2.83;;
22969;SDS011;11651;52.136;5.572;2022-07-11T04:05:35;6.47;;;2.75;;
22969;SDS011;11651;52.136;5.572;2022-07-11T04:08:01;5.90;;;2.80;;
22969;SDS011;11651;52.136;5.572;2022-07-11T04:10:26;5.00;;;3.22;;
22969;SDS011;11651;52.136;5.572;2022-07-11T04:12:52;5.75;;;3.10;;
22969;SDS011;11651;52.136;5.572;2022-07-11T04:15:17;8.10;;;3.58;;
22969;SDS011;11651;52.136;5.572;2022-07-11T04:17:43;4.47;;;3.05;;
22969;SDS011;11651;52.136;5.572;2022-07-11T04:20:09;6.20;;;3.25;;
22969;SDS011;11651;52.136;5.572;2022-07-11T04:22:35;8.40;;;3.33;;
22969;SDS011;11651;52.136;5.572;2022-07-11T04:25:00;5.53;;;2.88;;
22969;SDS011;11651;52.136;5.572;2022-07-11T04:27:26;4.68;;;2.92;;
22969;SDS011;11651;52.136;5.572;2022-07-11T04:29:51;3.45;;;2.40;;
22969;SDS011;11651;52.136;5.572;2022-07-11T04:32:17;8.43;;;3.10;;
22969;SDS011;11651;52.136;5.572;2022-07-11T04:34:43;4.07;;;2.83;;
22969;SDS011;11651;52.136;5.572;2022-07-11T04:37:08;3.40;;;3.10;;
22969;SDS011;11651;52.136;5.572;2022-07-11T04:39:34;10.65;;;3.50;;
22969;SDS011;11651;52.136;5.572;2022-07-11T04:42:00;5.90;;;3.40;;
22969;SDS011;11651;52.136;5.572;2022-07-11T04:44:26;4.28;;;3.00;;
22969;SDS011;11651;52.136;5.572;2022-07-11T04:46:52;5.60;;;3.50;;
22969;SDS011;11651;52.136;5.572;2022-07-11T04:49:18;7.97;;;3.50;;
22969;SDS011;11651;52.136;5.572;2022-07-11T04:51:44;3.97;;;3.17;;
22969;SDS011;11651;52.136;5.572;2022-07-11T04:54:10;6.85;;;3.00;;
22969;SDS011;11651;52.136;5.572;2022-07-11T04:56:35;5.30;;;3.03;;
22969;SDS011;11651;52.136;5.572;2022-07-11T04:59:02;6.03;;;3.15;;
22969;SDS011;11651;52.136;5.572;2022-07-11T05:01:28;6.82;;;3.03;;
22969;SDS011;11651;52.136;5.572;2022-07-11T05:03:54;6.88;;;3.13;;
22969;SDS011;11651;52.136;5.572;2022-07-11T05:06:20;5.55;;;3.08;;
22969;SDS011;11651;52.136;5.572;2022-07-11T05:08:46;4.97;;;3.00;;
22969;SDS011;11651;52.136;5.572;2022-07-11T05:11:12;5.88;;;3.22;;
22969;SDS011;11651;52.136;5.572;2022-07-11T05:13:37;5.63;;;3.13;;
22969;SDS011;11651;52.136;5.572;2022-07-11T05:16:03;7.68;;;3.30;;
22969;SDS011;11651;52.136;5.572;2022-07-11T05:18:29;4.05;;;2.72;;
22969;SDS011;11651;52.136;5.572;2022-07-11T05:20:54;4.80;;;3.20;;
22969;SDS011;11651;52.136;5.572;2022-07-11T05:23:21;8.45;;;3.55;;
22969;SDS011;11651;52.136;5.572;2022-07-11T05:25:47;3.55;;;3.10;;
22969;SDS011;11651;52.136;5.572;2022-07-11T05:28:13;7.18;;;3.33;;
22969;SDS011;11651;52.136;5.572;2022-07-11T05:30:38;5.32;;;3.17;;
22969;SDS011;11651;52.136;5.572;2022-07-11T05:33:04;3.70;;;3.28;;
22969;SDS011;11651;52.136;5.572;2022-07-11T05:35:29;4.60;;;3.10;;
22969;SDS011;11651;52.136;5.572;2022-07-11T05:37:55;4.32;;;3.50;;
22969;SDS011;11651;52.136;5.572;2022-07-11T05:40:21;4.78;;;3.17;;
22969;SDS011;11651;52.136;5.572;2022-07-11T05:42:46;5.43;;;3.20;;
22969;SDS011;11651;52.136;5.572;2022-07-11T05:45:12;3.05;;;2.67;;
22969;SDS011;11651;52.136;5.572;2022-07-11T05:47:38;4.80;;;2.58;;
22969;SDS011;11651;52.136;5.572;2022-07-11T05:50:04;2.95;;;2.35;;
22969;SDS011;11651;52.136;5.572;2022-07-11T05:52:30;3.92;;;2.42;;
22969;SDS011;11651;52.136;5.572;2022-07-11T05:54:56;2.30;;;2.10;;
22969;SDS011;11651;52.136;5.572;2022-07-11T05:57:22;2.92;;;1.90;;
22969;SDS011;11651;52.136;5.572;2022-07-11T05:59:48;4.00;;;2.40;;
22969;SDS011;11651;52.136;5.572;2022-07-11T06:02:13;4.05;;;2.25;;
22969;SDS011;11651;52.136;5.572;2022-07-11T06:04:39;2.22;;;1.70;;
22969;SDS011;11651;52.136;5.572;2022-07-11T06:07:05;3.35;;;1.60;;
22969;SDS011;11651;52.136;5.572;2022-07-11T06:09:30;2.05;;;1.40;;
22969;SDS011;11651;52.136;5.572;2022-07-11T06:11:56;2.17;;;1.60;;
22969;SDS011;11651;52.136;5.572;2022-07-11T06:14:22;1.65;;;1.50;;
22969;SDS011;11651;52.136;5.572;2022-07-11T06:16:49;2.05;;;1.50;;
22969;SDS011;11651;52.136;5.572;2022-07-11T06:19:15;1.50;;;1.40;;
22969;SDS011;11651;52.136;5.572;2022-07-11T06:21:41;1.63;;;1.30;;
22969;SDS011;11651;52.136;5.572;2022-07-11T06:24:07;1.80;;;1.35;;
22969;SDS011;11651;52.136;5.572;2022-07-11T06:26:33;1.67;;;1.13;;
22969;SDS011;11651;52.136;5.572;2022-07-11T06:28:58;2.00;;;1.50;;
22969;SDS011;11651;52.136;5.572;2022-07-11T06:31:24;3.05;;;1.38;;
22969;SDS011;11651;52.136;5.572;2022-07-11T06:33:50;1.88;;;1.10;;
22969;SDS011;11651;52.136;5.572;2022-07-11T06:36:19;1.67;;;1.30;;
22969;SDS011;11651;52.136;5.572;2022-07-11T06:38:48;1.52;;;0.93;;
22969;SDS011;11651;52.136;5.572;2022-07-11T06:41:14;1.00;;;0.88;;
22969;SDS011;11651;52.136;5.572;2022-07-11T06:43:40;1.17;;;0.95;;
22969;SDS011;11651;52.136;5.572;2022-07-11T06:46:06;2.40;;;0.80;;
22969;SDS011;11651;52.136;5.572;2022-07-11T06:48:31;0.80;;;0.80;;
22969;SDS011;11651;52.136;5.572;2022-07-11T06:50:57;1.38;;;1.05;;
22969;SDS011;11651;52.136;5.572;2022-07-11T06:53:23;1.65;;;1.00;;
22969;SDS011;11651;52.136;5.572;2022-07-11T06:55:48;1.75;;;1.15;;
22969;SDS011;11651;52.136;5.572;2022-07-11T06:58:14;0.95;;;0.90;;
22969;SDS011;11651;52.136;5.572;2022-07-11T07:00:56;1.40;;;1.17;;
22969;SDS011;11651;52.136;5.572;2022-07-11T07:03:23;1.13;;;1.00;;
22969;SDS011;11651;52.136;5.572;2022-07-11T07:05:48;1.20;;;1.10;;
22969;SDS011;11651;52.136;5.572;2022-07-11T07:08:15;1.08;;;1.00;;
22969;SDS011;11651;52.136;5.572;2022-07-11T07:10:41;2.33;;;1.15;;
22969;SDS011;11651;52.136;5.572;2022-07-11T07:13:07;1.10;;;1.00;;
22969;SDS011;11651;52.136;5.572;2022-07-11T07:15:33;1.15;;;1.10;;
22969;SDS011;11651;52.136;5.572;2022-07-11T07:17:59;0.88;;;0.88;;
22969;SDS011;11651;52.136;5.572;2022-07-11T07:20:24;0.88;;;0.70;;
22969;SDS011;11651;52.136;5.572;2022-07-11T07:22:50;0.90;;;0.70;;
22969;SDS011;11651;52.136;5.572;2022-07-11T07:25:16;0.98;;;0.70;;
22969;SDS011;11651;52.136;5.572;2022-07-11T07:27:42;2.83;;;0.70;;
22969;SDS011;11651;52.136;5.572;2022-07-11T07:30:08;0.60;;;0.50;;
22969;SDS011;11651;52.136;5.572;2022-07-11T07:32:33;0.93;;;0.60;;
22969;SDS011;11651;52.136;5.572;2022-07-11T07:34:59;1.58;;;0.70;;
22969;SDS011;11651;52.136;5.572;2022-07-11T07:37:25;1.27;;;0.77;;
22969;SDS011;11651;52.136;5.572;2022-07-11T07:39:51;0.60;;;0.57;;
22969;SDS011;11651;52.136;5.572;2022-07-11T07:42:17;1.10;;;1.02;;
22969;SDS011;11651;52.136;5.572;2022-07-11T07:44:42;1.10;;;0.80;;
22969;SDS011;11651;52.136;5.572;2022-07-11T07:47:08;2.22;;;0.75;;
22969;SDS011;11651;52.136;5.572;2022-07-11T07:49:34;0.90;;;0.70;;
22969;SDS011;11651;52.136;5.572;2022-07-11T07:51:59;0.88;;;0.70;;
22969;SDS011;11651;52.136;5.572;2022-07-11T07:54:25;1.10;;;0.73;;
22969;SDS011;11651;52.136;5.572;2022-07-11T07:56:50;1.75;;;0.80;;
22969;SDS011;11651;52.136;5.572;2022-07-11T07:59:16;1.08;;;0.80;;
22969;SDS011;11651;52.136;5.572;2022-07-11T08:01:41;0.57;;;0.57;;
22969;SDS011;11651;52.136;5.572;2022-07-11T08:04:10;1.50;;;0.70;;
22969;SDS011;11651;52.136;5.572;2022-07-11T08:06:37;0.70;;;0.70;;
22969;SDS011;11651;52.136;5.572;2022-07-11T08:09:03;1.30;;;0.95;;
22969;SDS011;11651;52.136;5.572;2022-07-11T08:11:30;0.80;;;0.73;;
22969;SDS011;11651;52.136;5.572;2022-07-11T08:13:57;2.95;;;0.65;;
22969;SDS011;11651;52.136;5.572;2022-07-11T08:16:23;0.85;;;0.65;;
22969;SDS011;11651;52.136;5.572;2022-07-11T08:18:49;0.77;;;0.77;;
22969;SDS011;11651;52.136;5.572;2022-07-11T08:21:15;0.68;;;0.65;;
22969;SDS011;11651;52.136;5.572;2022-07-11T08:23:40;1.10;;;0.57;;
22969;SDS011;11651;52.136;5.572;2022-07-11T08:26:06;0.93;;;0.57;;
22969;SDS011;11651;52.136;5.572;2022-07-11T08:28:32;3.15;;;1.20;;
22969;SDS011;11651;52.136;5.572;2022-07-11T08:30:58;1.02;;;0.90;;
22969;SDS011;11651;52.136;5.572;2022-07-11T08:33:23;2.50;;;0.93;;
22969;SDS011;11651;52.136;5.572;2022-07-11T08:35:49;1.35;;;0.65;;
22969;SDS011;11651;52.136;5.572;2022-07-11T08:38:14;1.08;;;0.60;;
22969;SDS011;11651;52.136;5.572;2022-07-11T08:40:40;0.40;;;0.40;;
22969;SDS011;11651;52.136;5.572;2022-07-11T08:43:13;2.22;;;0.40;;
22969;SDS011;11651;52.136;5.572;2022-07-11T08:45:40;0.85;;;0.50;;
22969;SDS011;11651;52.136;5.572;2022-07-11T08:48:07;0.50;;;0.50;;
22969;SDS011;11651;52.136;5.572;2022-07-11T08:50:36;1.25;;;0.55;;
22969;SDS011;11651;52.136;5.572;2022-07-11T08:53:03;1.25;;;0.57;;
22969;SDS011;11651;52.136;5.572;2022-07-11T08:55:29;0.50;;;0.40;;
22969;SDS011;11651;52.136;5.572;2022-07-11T08:57:55;2.35;;;0.50;;
22969;SDS011;11651;52.136;5.572;2022-07-11T09:00:21;0.38;;;0.38;;
22969;SDS011;11651;52.136;5.572;2022-07-11T09:02:47;0.95;;;0.60;;
22969;SDS011;11651;52.136;5.572;2022-07-11T09:05:14;0.65;;;0.60;;
22969;SDS011;11651;52.136;5.572;2022-07-11T09:07:42;0.82;;;0.60;;
22969;SDS011;11651;52.136;5.572;2022-07-11T09:10:12;0.50;;;0.50;;
22969;SDS011;11651;52.136;5.572;2022-07-11T09:12:57;2.15;;;0.60;;
22969;SDS011;11651;52.136;5.572;2022-07-11T09:15:34;0.77;;;0.40;;
22969;SDS011;11651;52.136;5.572;2022-07-11T09:18:06;1.15;;;0.40;;
22969;SDS011;11651;52.136;5.572;2022-07-11T09:20:55;1.23;;;0.45;;
22969;SDS011;11651;52.136;5.572;2022-07-11T09:23:51;0.55;;;0.50;;
22969;SDS011;11651;52.136;5.572;2022-07-11T09:26:38;2.08;;;0.52;;
22969;SDS011;11651;52.136;5.572;2022-07-11T09:29:11;0.90;;;0.40;;
22969;SDS011;11651;52.136;5.572;2022-07-11T09:31:42;1.02;;;0.60;;
22969;SDS011;11651;52.136;5.572;2022-07-11T09:34:11;0.80;;;0.50;;
22969;SDS011;11651;52.136;5.572;2022-07-11T09:39:09;0.47;;;0.30;;
22969;SDS011;11651;52.136;5.572;2022-07-11T09:41:41;1.27;;;0.50;;
22969;SDS011;11651;52.136;5.572;2022-07-11T09:44:08;1.33;;;0.60;;
22969;SDS011;11651;52.136;5.572;2022-07-11T09:46:38;0.38;;;0.38;;
22969;SDS011;11651;52.136;5.572;2022-07-11T09:49:05;1.05;;;0.52;;
22969;SDS011;11651;52.136;5.572;2022-07-11T09:51:32;1.58;;;0.50;;
22969;SDS011;11651;52.136;5.572;2022-07-11T09:53:59;0.30;;;0.30;;
22969;SDS011;11651;52.136;5.572;2022-07-11T09:56:36;2.33;;;0.60;;
22969;SDS011;11651;52.136;5.572;2022-07-11T09:59:07;1.08;;;0.50;;
22969;SDS011;11651;52.136;5.572;2022-07-11T10:01:35;1.45;;;0.30;;
22969;SDS011;11651;52.136;5.572;2022-07-11T10:04:01;0.40;;;0.40;;
22969;SDS011;11651;52.136;5.572;2022-07-11T10:06:27;0.45;;;0.45;;
22969;SDS011;11651;52.136;5.572;2022-07-11T10:08:53;0.70;;;0.40;;
22969;SDS011;11651;52.136;5.572;2022-07-11T10:11:19;0.60;;;0.50;;
22969;SDS011;11651;52.136;5.572;2022-07-11T10:13:46;0.80;;;0.52;;
22969;SDS011;11651;52.136;5.572;2022-07-11T10:22:06;0.45;;;0.45;;
22969;SDS011;11651;52.136;5.572;2022-07-11T10:29:55;0.88;;;0.70;;
22969;SDS011;11651;52.136;5.572;2022-07-11T10:32:21;0.50;;;0.50;;
22969;SDS011;11651;52.136;5.572;2022-07-11T10:35:04;0.40;;;0.40;;
22969;SDS011;11651;52.136;5.572;2022-07-11T10:37:52;0.90;;;0.50;;
22969;SDS011;11651;52.136;5.572;2022-07-11T10:43:08;0.30;;;0.28;;
22969;SDS011;11651;52.136;5.572;2022-07-11T10:48:18;0.35;;;0.20;;
22969;SDS011;11651;52.136;5.572;2022-07-11T10:50:44;0.68;;;0.40;;
22969;SDS011;11651;52.136;5.572;2022-07-11T10:53:14;0.43;;;0.40;;
22969;SDS011;11651;52.136;5.572;2022-07-11T10:55:53;2.28;;;0.40;;
22969;SDS011;11651;52.136;5.572;2022-07-11T10:58:41;0.40;;;0.40;;
22969;SDS011;11651;52.136;5.572;2022-07-11T11:01:14;0.60;;;0.30;;
22969;SDS011;11651;52.136;5.572;2022-07-11T11:03:40;0.30;;;0.20;;
22969;SDS011;11651;52.136;5.572;2022-07-11T11:06:07;0.30;;;0.30;;
22969;SDS011;11651;52.136;5.572;2022-07-11T11:11:01;0.40;;;0.40;;
22969;SDS011;11651;52.136;5.572;2022-07-11T11:13:28;0.47;;;0.45;;
22969;SDS011;11651;52.136;5.572;2022-07-11T11:15:55;0.40;;;0.30;;
22969;SDS011;11651;52.136;5.572;2022-07-11T11:23:38;1.45;;;0.50;;
22969;SDS011;11651;52.136;5.572;2022-07-11T11:26:06;1.05;;;0.30;;
22969;SDS011;11651;52.136;5.572;2022-07-11T11:28:58;0.43;;;0.30;;
22969;SDS011;11651;52.136;5.572;2022-07-11T11:31:24;1.27;;;0.60;;
22969;SDS011;11651;52.136;5.572;2022-07-11T11:33:50;0.40;;;0.40;;
22969;SDS011;11651;52.136;5.572;2022-07-11T11:36:17;0.35;;;0.20;;
22969;SDS011;11651;52.136;5.572;2022-07-11T11:38:45;0.32;;;0.30;;
22969;SDS011;11651;52.136;5.572;2022-07-11T11:41:13;0.22;;;0.22;;
22969;SDS011;11651;52.136;5.572;2022-07-11T11:43:42;0.73;;;0.30;;
22969;SDS011;11651;52.136;5.572;2022-07-11T11:46:11;0.28;;;0.28;;
22969;SDS011;11651;52.136;5.572;2022-07-11T11:48:38;1.90;;;0.40;;
22969;SDS011;11651;52.136;5.572;2022-07-11T11:51:13;0.40;;;0.30;;
22969;SDS011;11651;52.136;5.572;2022-07-11T11:53:44;2.00;;;0.50;;
22969;SDS011;11651;52.136;5.572;2022-07-11T11:59:06;1.40;;;0.38;;
22969;SDS011;11651;52.136;5.572;2022-07-11T12:01:38;1.02;;;0.40;;
22969;SDS011;11651;52.136;5.572;2022-07-11T12:04:08;1.40;;;0.93;;
22969;SDS011;11651;52.136;5.572;2022-07-11T12:06:39;1.35;;;0.50;;
22969;SDS011;11651;52.136;5.572;2022-07-11T12:09:09;0.63;;;0.63;;
22969;SDS011;11651;52.136;5.572;2022-07-11T12:11:37;0.40;;;0.40;;
22969;SDS011;11651;52.136;5.572;2022-07-11T12:14:04;0.57;;;0.57;;
22969;SDS011;11651;52.136;5.572;2022-07-11T12:16:32;0.40;;;0.40;;
22969;SDS011;11651;52.136;5.572;2022-07-11T12:19:06;3.05;;;0.40;;
22969;SDS011;11651;52.136;5.572;2022-07-11T12:21:32;0.50;;;0.45;;
22969;SDS011;11651;52.136;5.572;2022-07-11T12:24:03;1.15;;;0.40;;
22969;SDS011;11651;52.136;5.572;2022-07-11T12:26:35;0.73;;;0.40;;
22969;SDS011;11651;52.136;5.572;2022-07-11T12:29:13;0.55;;;0.50;;
22969;SDS011;11651;52.136;5.572;2022-07-11T12:31:51;1.15;;;0.60;;
22969;SDS011;11651;52.136;5.572;2022-07-11T12:34:18;1.73;;;0.73;;
22969;SDS011;11651;52.136;5.572;2022-07-11T12:36:47;1.40;;;0.50;;
22969;SDS011;11651;52.136;5.572;2022-07-11T12:39:23;2.45;;;1.60;;
22969;SDS011;11651;52.136;5.572;2022-07-11T12:41:54;2.83;;;1.20;;
22969;SDS011;11651;52.136;5.572;2022-07-11T12:44:23;0.60;;;0.57;;
22969;SDS011;11651;52.136;5.572;2022-07-11T12:47:09;1.55;;;0.40;;
22969;SDS011;11651;52.136;5.572;2022-07-11T12:49:34;0.75;;;0.50;;
22969;SDS011;11651;52.136;5.572;2022-07-11T12:52:00;0.40;;;0.40;;
22969;SDS011;11651;52.136;5.572;2022-07-11T12:54:30;0.77;;;0.60;;
22969;SDS011;11651;52.136;5.572;2022-07-11T12:56:58;2.15;;;0.55;;
22969;SDS011;11651;52.136;5.572;2022-07-11T12:59:28;0.85;;;0.60;;
22969;SDS011;11651;52.136;5.572;2022-07-11T13:01:59;0.95;;;0.55;;
22969;SDS011;11651;52.136;5.572;2022-07-11T13:10:17;0.30;;;0.30;;
22969;SDS011;11651;52.136;5.572;2022-07-11T13:12:45;0.22;;;0.22;;
22969;SDS011;11651;52.136;5.572;2022-07-11T13:15:12;1.17;;;0.30;;
22969;SDS011;11651;52.136;5.572;2022-07-11T13:17:43;0.28;;;0.28;;
22969;SDS011;11651;52.136;5.572;2022-07-11T13:20:14;0.55;;;0.40;;
22969;SDS011;11651;52.136;5.572;2022-07-11T13:22:42;1.02;;;0.50;;
22969;SDS011;11651;52.136;5.572;2022-07-11T13:25:13;0.55;;;0.30;;
22969;SDS011;11651;52.136;5.572;2022-07-11T13:27:43;1.10;;;0.40;;
22969;SDS011;11651;52.136;5.572;2022-07-11T13:30:14;1.25;;;0.40;;
22969;SDS011;11651;52.136;5.572;2022-07-11T13:32:46;0.40;;;0.40;;
22969;SDS011;11651;52.136;5.572;2022-07-11T13:35:12;2.53;;;1.65;;
22969;SDS011;11651;52.136;5.572;2022-07-11T13:37:38;1.77;;;0.47;;
22969;SDS011;11651;52.136;5.572;2022-07-11T13:40:10;0.30;;;0.30;;
22969;SDS011;11651;52.136;5.572;2022-07-11T13:42:41;0.73;;;0.40;;
22969;SDS011;11651;52.136;5.572;2022-07-11T13:45:07;0.40;;;0.40;;
22969;SDS011;11651;52.136;5.572;2022-07-11T13:47:34;1.13;;;1.02;;
22969;SDS011;11651;52.136;5.572;2022-07-11T13:50:00;0.45;;;0.45;;
22969;SDS011;11651;52.136;5.572;2022-07-11T13:52:38;0.25;;;0.20;;
22969;SDS011;11651;52.136;5.572;2022-07-11T13:55:13;4.50;;;4.20;;
22969;SDS011;11651;52.136;5.572;2022-07-11T13:57:39;0.57;;;0.57;;
22969;SDS011;11651;52.136;5.572;2022-07-11T14:00:05;0.88;;;0.60;;
22969;SDS011;11651;52.136;5.572;2022-07-11T14:02:31;0.47;;;0.40;;
22969;SDS011;11651;52.136;5.572;2022-07-11T14:04:57;0.35;;;0.30;;
22969;SDS011;11651;52.136;5.572;2022-07-11T14:07:23;0.40;;;0.30;;
22969;SDS011;11651;52.136;5.572;2022-07-11T14:09:49;0.43;;;0.22;;
22969;SDS011;11651;52.136;5.572;2022-07-11T14:12:15;0.50;;;0.28;;
22969;SDS011;11651;52.136;5.572;2022-07-11T14:14:43;12.50;;;11.35;;
22969;SDS011;11651;52.136;5.572;2022-07-11T14:17:10;1.20;;;1.10;;
22969;SDS011;11651;52.136;5.572;2022-07-11T14:19:35;1.52;;;1.20;;
22969;SDS011;11651;52.136;5.572;2022-07-11T14:22:04;2.55;;;1.40;;
22969;SDS011;11651;52.136;5.572;2022-07-11T14:24:33;0.70;;;0.70;;
22969;SDS011;11651;52.136;5.572;2022-07-11T14:27:00;0.38;;;0.38;;
22969;SDS011;11651;52.136;5.572;2022-07-11T14:29:28;0.35;;;0.20;;
22969;SDS011;11651;52.136;5.572;2022-07-11T14:31:55;0.30;;;0.30;;
22969;SDS011;11651;52.136;5.572;2022-07-11T14:34:20;0.38;;;0.30;;
22969;SDS011;11651;52.136;5.572;2022-07-11T14:37:02;0.85;;;0.50;;
22969;SDS011;11651;52.136;5.572;2022-07-11T14:39:36;1.17;;;1.08;;
22969;SDS011;11651;52.136;5.572;2022-07-11T14:42:02;0.55;;;0.40;;
22969;SDS011;11651;52.136;5.572;2022-07-11T14:44:30;0.85;;;0.70;;
22969;SDS011;11651;52.136;5.572;2022-07-11T14:50:34;1.02;;;0.35;;
22969;SDS011;11651;52.136;5.572;2022-07-11T14:53:03;2.85;;;1.10;;
22969;SDS011;11651;52.136;5.572;2022-07-11T14:55:31;0.65;;;0.40;;
22969;SDS011;11651;52.136;5.572;2022-07-11T14:58:01;0.25;;;0.20;;
22969;SDS011;11651;52.136;5.572;2022-07-11T15:00:40;1.83;;;0.20;;
22969;SDS011;11651;52.136;5.572;2022-07-11T15:06:39;0.40;;;0.30;;
22969;SDS011;11651;52.136;5.572;2022-07-11T15:12:29;0.30;;;0.30;;
22969;SDS011;11651;52.136;5.572;2022-07-11T15:15:01;1.60;;;1.17;;
22969;SDS011;11651;52.136;5.572;2022-07-11T15:17:27;0.40;;;0.40;;
22969;SDS011;11651;52.136;5.572;2022-07-11T15:19:53;1.67;;;0.30;;
22969;SDS011;11651;52.136;5.572;2022-07-11T15:22:19;0.30;;;0.30;;
22969;SDS011;11651;52.136;5.572;2022-07-11T15:24:46;0.70;;;0.70;;
22969;SDS011;11651;52.136;5.572;2022-07-11T15:27:12;2.47;;;2.10;;
22969;SDS011;11651;52.136;5.572;2022-07-11T15:29:37;0.60;;;0.60;;
22969;SDS011;11651;52.136;5.572;2022-07-11T15:32:06;0.60;;;0.60;;
22969;SDS011;11651;52.136;5.572;2022-07-11T15:34:31;0.60;;;0.40;;
22969;SDS011;11651;52.136;5.572;2022-07-11T15:36:57;0.20;;;0.20;;
22969;SDS011;11651;52.136;5.572;2022-07-11T15:39:23;1.20;;;1.08;;
22969;SDS011;11651;52.136;5.572;2022-07-11T15:41:49;0.57;;;0.57;;
22969;SDS011;11651;52.136;5.572;2022-07-11T15:44:17;1.85;;;0.40;;